createdAt,value
2017-11-19T00:00:23.572Z,0
2017-11-19T00:01:24.162Z,0
2017-11-19T00:02:24.772Z,0
2017-11-19T00:03:25.362Z,0
2017-11-19T00:04:25.971Z,0
2017-11-19T00:05:26.571Z,0
2017-11-19T00:06:27.202Z,0
2017-11-19T00:07:27.775Z,0
2017-11-19T00:08:28.378Z,0
2017-11-19T00:09:28.968Z,0
2017-11-19T00:10:29.562Z,0
2017-11-19T00:11:30.161Z,0
2017-11-19T00:12:30.796Z,0
2017-11-19T00:13:31.364Z,0
2017-11-19T00:14:31.969Z,0
2017-11-19T00:15:32.570Z,0
2017-11-19T00:16:33.182Z,0
2017-11-19T00:17:33.784Z,0
2017-11-19T00:18:34.376Z,0
2017-11-19T00:19:34.983Z,0
2017-11-19T00:20:35.587Z,0
2017-11-19T00:21:36.207Z,0
2017-11-19T00:22:36.784Z,0
2017-11-19T00:23:37.394Z,0
2017-11-19T00:24:37.990Z,0
2017-11-19T00:25:38.590Z,0
2017-11-19T00:26:39.197Z,0
2017-11-19T00:27:39.803Z,0
2017-11-19T00:28:40.398Z,0
2017-11-19T00:29:40.994Z,0
2017-11-19T00:30:41.597Z,0
2017-11-19T00:31:42.199Z,0
2017-11-19T00:32:42.806Z,0
2017-11-19T00:33:43.400Z,0
2017-11-19T00:34:44.004Z,0
2017-11-19T00:35:44.608Z,0
2017-11-19T00:36:45.212Z,0
2017-11-19T00:37:45.803Z,0
2017-11-19T00:38:46.404Z,0
2017-11-19T00:39:47.019Z,0
2017-11-19T00:40:47.602Z,0
2017-11-19T00:41:48.200Z,0
2017-11-19T00:42:48.798Z,0
2017-11-19T00:43:49.396Z,0
2017-11-19T00:44:49.988Z,0
2017-11-19T00:45:50.603Z,0
2017-11-19T00:46:51.241Z,0
2017-11-19T00:47:51.815Z,0
2017-11-19T00:48:52.410Z,0
2017-11-19T00:49:53.015Z,0
2017-11-19T00:50:53.619Z,0
2017-11-19T00:51:54.213Z,0
2017-11-19T00:52:54.805Z,0
2017-11-19T00:53:55.412Z,0
2017-11-19T00:54:56.013Z,0
2017-11-19T00:55:56.619Z,0
2017-11-19T00:56:57.223Z,0
2017-11-19T00:57:57.830Z,0
2017-11-19T00:58:58.430Z,0
2017-11-19T00:59:59.018Z,0
2017-11-19T01:00:59.630Z,0
2017-11-19T01:02:00.254Z,0
2017-11-19T01:03:00.843Z,0
2017-11-19T01:04:01.443Z,0
2017-11-19T01:05:02.061Z,0
2017-11-19T01:06:02.643Z,0
2017-11-19T01:07:03.250Z,0
2017-11-19T01:08:03.867Z,0
2017-11-19T01:09:04.482Z,0
2017-11-19T01:10:05.080Z,0
2017-11-19T01:11:05.684Z,0
2017-11-19T01:12:06.275Z,0
2017-11-19T01:13:06.883Z,0
2017-11-19T01:14:07.489Z,0
2017-11-19T01:15:08.081Z,0
2017-11-19T01:16:08.683Z,0
2017-11-19T01:17:09.326Z,0
2017-11-19T01:18:09.925Z,0
2017-11-19T01:19:10.528Z,0
2017-11-19T01:20:11.131Z,0
2017-11-19T01:21:11.727Z,0
2017-11-19T01:22:12.329Z,0
2017-11-19T01:23:12.921Z,0
2017-11-19T01:24:13.520Z,0
2017-11-19T01:25:14.124Z,0
2017-11-19T01:26:14.729Z,0
2017-11-19T01:27:15.315Z,0
2017-11-19T01:28:15.934Z,0
2017-11-19T01:29:16.519Z,0
2017-11-19T01:30:17.119Z,0
2017-11-19T01:31:17.721Z,0
2017-11-19T01:32:18.328Z,0
2017-11-19T01:33:18.922Z,0
2017-11-19T01:34:19.518Z,0
2017-11-19T01:35:20.109Z,0
2017-11-19T01:36:20.706Z,0
2017-11-19T01:37:21.322Z,0
2017-11-19T01:38:21.940Z,0
2017-11-19T01:39:22.523Z,0
2017-11-19T01:40:23.106Z,0
2017-11-19T01:41:23.708Z,0
2017-11-19T01:42:24.305Z,0
2017-11-19T01:43:24.904Z,0
2017-11-19T01:44:25.510Z,0
2017-11-19T01:45:26.112Z,0
2017-11-19T01:46:26.710Z,0
2017-11-19T01:47:27.302Z,0
2017-11-19T01:48:27.903Z,0
2017-11-19T01:49:28.529Z,0
2017-11-19T01:50:29.112Z,0
2017-11-19T01:51:29.700Z,0
2017-11-19T01:52:30.291Z,0
2017-11-19T01:53:30.901Z,0
2017-11-19T01:54:31.501Z,0
2017-11-19T01:55:32.107Z,0
2017-11-19T01:56:32.684Z,0
2017-11-19T01:57:33.287Z,0
2017-11-19T01:58:33.885Z,0
2017-11-19T01:59:34.485Z,0
2017-11-19T02:00:35.083Z,0
2017-11-19T02:01:35.683Z,0
2017-11-19T02:02:36.284Z,0
2017-11-19T02:03:36.884Z,0
2017-11-19T02:04:37.472Z,0
2017-11-19T02:05:38.062Z,0
2017-11-19T02:06:38.658Z,0
2017-11-19T02:07:39.266Z,0
2017-11-19T02:08:39.868Z,0
2017-11-19T02:09:40.461Z,0
2017-11-19T02:10:41.071Z,0
2017-11-19T02:11:41.673Z,0
2017-11-19T02:12:42.273Z,0
2017-11-19T02:13:42.875Z,0
2017-11-19T02:14:43.466Z,0
2017-11-19T02:15:44.066Z,0
2017-11-19T02:16:44.676Z,0
2017-11-19T02:17:45.285Z,0
2017-11-19T02:18:45.869Z,0
2017-11-19T02:19:46.476Z,0
2017-11-19T02:20:47.101Z,0
2017-11-19T02:21:47.681Z,0
2017-11-19T02:22:48.272Z,0
2017-11-19T02:23:48.866Z,0
2017-11-19T02:24:49.475Z,0
2017-11-19T02:25:50.086Z,0
2017-11-19T02:26:50.675Z,0
2017-11-19T02:27:51.294Z,0
2017-11-19T02:28:51.876Z,0
2017-11-19T02:29:52.475Z,0
2017-11-19T02:30:53.065Z,0
2017-11-19T02:31:53.683Z,0
2017-11-19T02:32:54.270Z,0
2017-11-19T02:33:54.862Z,0
2017-11-19T02:34:55.461Z,0
2017-11-19T02:35:56.055Z,0
2017-11-19T02:36:56.655Z,0
2017-11-19T02:37:57.250Z,0
2017-11-19T02:38:57.842Z,0
2017-11-19T02:39:58.434Z,0
2017-11-19T02:40:59.039Z,0
2017-11-19T02:41:59.647Z,0
2017-11-19T02:43:00.254Z,0
2017-11-19T02:44:00.879Z,0
2017-11-19T02:45:01.443Z,0
2017-11-19T02:46:02.049Z,0
2017-11-19T02:47:02.647Z,0
2017-11-19T02:48:03.255Z,0
2017-11-19T02:49:03.847Z,0
2017-11-19T02:50:04.449Z,0
2017-11-19T02:51:05.044Z,0
2017-11-19T02:52:05.633Z,0
2017-11-19T02:53:06.224Z,0
2017-11-19T02:54:06.838Z,0
2017-11-19T02:55:07.422Z,0
2017-11-19T02:56:08.028Z,0
2017-11-19T02:57:08.616Z,0
2017-11-19T02:58:09.229Z,0
2017-11-19T02:59:09.824Z,0
2017-11-19T03:00:10.423Z,0
2017-11-19T03:01:11.031Z,0
2017-11-19T03:02:11.626Z,0
2017-11-19T03:03:12.216Z,0
2017-11-19T03:04:12.809Z,0
2017-11-19T03:05:13.410Z,0
2017-11-19T03:06:14.012Z,0
2017-11-19T03:07:14.601Z,0
2017-11-19T03:08:15.205Z,0
2017-11-19T03:09:15.801Z,0
2017-11-19T03:10:16.411Z,0
2017-11-19T03:11:17.013Z,0
2017-11-19T03:12:17.616Z,0
2017-11-19T03:13:18.246Z,0
2017-11-19T03:14:18.841Z,0
2017-11-19T03:15:19.440Z,0
2017-11-19T03:16:20.037Z,0
2017-11-19T03:17:20.627Z,0
2017-11-19T03:18:21.232Z,0
2017-11-19T03:19:21.840Z,0
2017-11-19T03:20:22.443Z,0
2017-11-19T03:21:23.047Z,0
2017-11-19T03:22:23.649Z,0
2017-11-19T03:23:24.233Z,0
2017-11-19T03:24:24.845Z,0
2017-11-19T03:25:25.423Z,0
2017-11-19T03:26:26.034Z,0
2017-11-19T03:28:27.208Z,0
2017-11-19T03:29:27.812Z,0
2017-11-19T03:30:28.420Z,0
2017-11-19T03:31:28.998Z,0
2017-11-19T03:32:29.606Z,0
2017-11-19T03:33:30.199Z,0
2017-11-19T03:34:30.802Z,0
2017-11-19T03:35:31.395Z,0
2017-11-19T03:36:32.011Z,0
2017-11-19T03:37:32.619Z,0
2017-11-19T03:38:33.212Z,0
2017-11-19T03:39:33.804Z,0
2017-11-19T03:40:34.408Z,0
2017-11-19T03:41:35.007Z,0
2017-11-19T03:42:35.610Z,0
2017-11-19T03:43:36.219Z,0
2017-11-19T03:44:36.809Z,0
2017-11-19T03:45:37.414Z,0
2017-11-19T03:46:38.005Z,0
2017-11-19T03:47:38.595Z,0
2017-11-19T03:48:39.188Z,0
2017-11-19T03:49:39.787Z,0
2017-11-19T03:50:40.396Z,0
2017-11-19T03:51:40.990Z,0
2017-11-19T03:52:41.590Z,0
2017-11-19T03:53:42.197Z,0
2017-11-19T03:54:42.805Z,0
2017-11-19T03:55:43.404Z,0
2017-11-19T03:56:44.006Z,0
2017-11-19T03:57:44.610Z,0
2017-11-19T03:58:45.209Z,0
2017-11-19T03:59:45.798Z,0
2017-11-19T04:00:46.400Z,0
2017-11-19T04:01:46.988Z,0
2017-11-19T04:02:47.578Z,0
2017-11-19T04:03:48.188Z,0
2017-11-19T04:04:48.799Z,0
2017-11-19T04:05:49.394Z,0
2017-11-19T04:06:49.980Z,0
2017-11-19T04:07:50.588Z,0
2017-11-19T04:08:51.168Z,0
2017-11-19T04:09:51.769Z,0
2017-11-19T04:10:52.373Z,0
2017-11-19T04:11:52.974Z,0
2017-11-19T04:12:53.584Z,0
2017-11-19T04:13:54.182Z,0
2017-11-19T04:14:54.776Z,0
2017-11-19T04:15:55.384Z,0
2017-11-19T04:16:55.985Z,0
2017-11-19T04:17:56.577Z,0
2017-11-19T04:18:57.166Z,0
2017-11-19T04:19:57.770Z,0
2017-11-19T04:20:58.365Z,0
2017-11-19T04:21:58.970Z,0
2017-11-19T04:22:59.574Z,0
2017-11-19T04:24:00.153Z,0
2017-11-19T04:25:00.755Z,0
2017-11-19T04:26:01.359Z,0
2017-11-19T04:27:01.948Z,0
2017-11-19T04:28:02.544Z,0
2017-11-19T04:29:03.147Z,0
2017-11-19T04:30:03.747Z,0
2017-11-19T04:31:04.342Z,0
2017-11-19T04:32:04.951Z,0
2017-11-19T04:33:05.535Z,0
2017-11-19T04:34:06.136Z,0
2017-11-19T04:35:06.742Z,0
2017-11-19T04:36:07.340Z,0
2017-11-19T04:37:07.936Z,0
2017-11-19T04:38:08.529Z,0
2017-11-19T04:39:09.123Z,0
2017-11-19T04:40:09.726Z,0
2017-11-19T04:41:10.316Z,0
2017-11-19T04:42:10.907Z,0
2017-11-19T04:43:11.501Z,0
2017-11-19T04:44:12.087Z,0
2017-11-19T04:45:12.692Z,0
2017-11-19T04:46:13.297Z,0
2017-11-19T04:47:13.901Z,0
2017-11-19T04:48:14.502Z,0
2017-11-19T04:49:15.103Z,0
2017-11-19T04:50:15.707Z,0
2017-11-19T04:51:16.292Z,0
2017-11-19T04:52:16.894Z,0
2017-11-19T04:53:17.512Z,0
2017-11-19T04:54:18.083Z,0
2017-11-19T04:55:18.687Z,0
2017-11-19T04:56:19.275Z,0
2017-11-19T04:57:19.875Z,0
2017-11-19T04:58:20.473Z,0
2017-11-19T04:59:21.079Z,0
2017-11-19T05:00:21.660Z,0
2017-11-19T05:01:22.252Z,0
2017-11-19T05:02:22.848Z,0
2017-11-19T05:03:23.449Z,0
2017-11-19T05:04:24.041Z,0
2017-11-19T05:05:24.629Z,0
2017-11-19T05:06:25.216Z,0
2017-11-19T05:07:25.820Z,0
2017-11-19T05:08:26.422Z,0
2017-11-19T05:09:27.020Z,0
2017-11-19T05:10:27.615Z,0
2017-11-19T05:11:28.223Z,0
2017-11-19T05:12:28.849Z,0
2017-11-19T05:13:29.431Z,0
2017-11-19T05:14:30.043Z,0
2017-11-19T05:15:30.630Z,0
2017-11-19T05:16:31.215Z,0
2017-11-19T05:17:31.814Z,0
2017-11-19T05:18:32.427Z,0
2017-11-19T05:19:33.012Z,0
2017-11-19T05:20:33.605Z,0
2017-11-19T05:21:34.198Z,0
2017-11-19T05:22:34.806Z,0
2017-11-19T05:23:35.400Z,0
2017-11-19T05:24:36.011Z,0
2017-11-19T05:25:36.625Z,0
2017-11-19T05:26:37.186Z,0
2017-11-19T05:27:37.779Z,0
2017-11-19T05:28:38.365Z,0
2017-11-19T05:29:38.974Z,0
2017-11-19T05:30:39.558Z,0
2017-11-19T05:31:40.156Z,0
2017-11-19T05:32:40.757Z,0
2017-11-19T05:33:41.362Z,0
2017-11-19T05:34:41.968Z,0
2017-11-19T05:35:42.563Z,0
2017-11-19T05:36:43.187Z,0
2017-11-19T05:37:43.769Z,0
2017-11-19T05:38:44.376Z,0
2017-11-19T05:39:44.983Z,0
2017-11-19T05:40:45.583Z,0
2017-11-19T05:41:46.185Z,0
2017-11-19T05:42:46.782Z,0
2017-11-19T05:43:47.381Z,0
2017-11-19T05:44:47.984Z,0
2017-11-19T05:45:48.582Z,0
2017-11-19T05:46:49.177Z,0
2017-11-19T05:47:49.779Z,0
2017-11-19T05:48:50.387Z,0
2017-11-19T05:49:50.987Z,0
2017-11-19T05:50:51.593Z,0
2017-11-19T05:51:52.203Z,0
2017-11-19T05:52:52.806Z,0
2017-11-19T05:53:53.394Z,0
2017-11-19T05:54:53.993Z,0
2017-11-19T05:55:54.638Z,0
2017-11-19T05:56:55.206Z,0
2017-11-19T05:57:55.801Z,0
2017-11-19T05:58:56.408Z,0
2017-11-19T05:59:56.990Z,0
2017-11-19T06:00:57.590Z,0
2017-11-19T06:01:58.186Z,0
2017-11-19T06:02:58.766Z,0
2017-11-19T06:03:59.361Z,0
2017-11-19T06:04:59.949Z,0
2017-11-19T06:06:00.544Z,0
2017-11-19T06:07:01.135Z,0
2017-11-19T06:08:01.739Z,0
2017-11-19T06:09:02.338Z,0
2017-11-19T06:10:02.922Z,0
2017-11-19T06:11:03.518Z,0
2017-11-19T06:12:04.115Z,0
2017-11-19T06:13:04.708Z,0
2017-11-19T06:14:05.315Z,0
2017-11-19T06:15:05.909Z,0
2017-11-19T06:16:06.494Z,0
2017-11-19T06:17:07.095Z,0
2017-11-19T06:18:07.695Z,0
2017-11-19T06:19:08.301Z,0
2017-11-19T06:20:08.897Z,4
2017-11-19T06:21:09.502Z,0
2017-11-19T06:22:10.104Z,0
2017-11-19T06:23:10.697Z,4
2017-11-19T06:24:11.296Z,4
2017-11-19T06:25:11.893Z,4
2017-11-19T06:26:12.493Z,4
2017-11-19T06:27:13.096Z,8
2017-11-19T06:28:13.687Z,8
2017-11-19T06:29:14.302Z,12
2017-11-19T06:30:14.887Z,12
2017-11-19T06:31:15.485Z,16
2017-11-19T06:32:16.073Z,20
2017-11-19T06:33:16.667Z,20
2017-11-19T06:34:17.257Z,24
2017-11-19T06:35:17.859Z,28
2017-11-19T06:36:18.450Z,32
2017-11-19T06:37:19.044Z,40
2017-11-19T06:38:19.640Z,48
2017-11-19T06:39:20.244Z,56
2017-11-19T06:40:20.852Z,64
2017-11-19T06:41:21.451Z,76
2017-11-19T06:42:22.049Z,88
2017-11-19T06:43:22.654Z,100
2017-11-19T06:44:23.250Z,116
2017-11-19T06:45:23.869Z,132
2017-11-19T06:46:24.456Z,148
2017-11-19T06:47:25.064Z,168
2017-11-19T06:48:25.652Z,192
2017-11-19T06:49:26.253Z,212
2017-11-19T06:50:26.863Z,236
2017-11-19T06:51:27.470Z,264
2017-11-19T06:52:28.081Z,292
2017-11-19T06:53:28.669Z,324
2017-11-19T06:54:29.277Z,360
2017-11-19T06:55:29.874Z,392
2017-11-19T06:56:30.476Z,428
2017-11-19T06:57:31.069Z,464
2017-11-19T06:58:31.672Z,500
2017-11-19T06:59:32.277Z,536
2017-11-19T07:00:32.883Z,580
2017-11-19T07:01:33.471Z,620
2017-11-19T07:02:34.081Z,668
2017-11-19T07:03:34.684Z,720
2017-11-19T07:04:35.282Z,772
2017-11-19T07:05:35.874Z,824
2017-11-19T07:06:36.474Z,884
2017-11-19T07:07:37.067Z,952
2017-11-19T07:08:37.672Z,1048
2017-11-19T07:09:38.259Z,1192
2017-11-19T07:10:38.861Z,1352
2017-11-19T07:11:39.461Z,1432
2017-11-19T07:12:40.070Z,1468
2017-11-19T07:13:40.664Z,1508
2017-11-19T07:14:41.260Z,1504
2017-11-19T07:15:41.852Z,1532
2017-11-19T07:16:42.452Z,1812
2017-11-19T07:17:43.062Z,2316
2017-11-19T07:18:43.674Z,2760
2017-11-19T07:19:44.275Z,2992
2017-11-19T07:20:44.878Z,3128
2017-11-19T07:21:45.484Z,3108
2017-11-19T07:22:46.079Z,2716
2017-11-19T07:23:46.680Z,2036
2017-11-19T07:24:47.275Z,1480
2017-11-19T07:25:47.880Z,1188
2017-11-19T07:26:48.484Z,940
2017-11-19T07:27:49.077Z,708
2017-11-19T07:28:49.700Z,596
2017-11-19T07:29:50.291Z,512
2017-11-19T07:30:50.902Z,516
2017-11-19T07:31:51.510Z,600
2017-11-19T07:32:52.107Z,804
2017-11-19T07:33:52.705Z,1160
2017-11-19T07:34:53.302Z,1520
2017-11-19T07:35:53.904Z,1744
2017-11-19T07:36:54.515Z,1884
2017-11-19T07:37:55.145Z,1936
2017-11-19T07:38:55.729Z,1960
2017-11-19T07:39:56.333Z,1952
2017-11-19T07:40:56.928Z,1936
2017-11-19T07:41:57.515Z,1956
2017-11-19T07:42:58.118Z,1964
2017-11-19T07:43:58.704Z,1948
2017-11-19T07:44:59.310Z,1920
2017-11-19T07:45:59.917Z,2008
2017-11-19T07:47:00.536Z,2056
2017-11-19T07:48:01.121Z,2160
2017-11-19T07:49:01.727Z,2136
2017-11-19T07:50:02.337Z,2144
2017-11-19T07:51:02.933Z,2416
2017-11-19T07:52:03.529Z,2444
2017-11-19T07:53:04.140Z,2448
2017-11-19T07:54:04.749Z,2472
2017-11-19T07:55:05.350Z,2652
2017-11-19T07:56:05.964Z,2872
2017-11-19T07:57:06.557Z,2872
2017-11-19T07:58:07.174Z,3000
2017-11-19T07:59:07.770Z,3276
2017-11-19T08:00:08.370Z,3444
2017-11-19T08:01:08.997Z,3820
2017-11-19T08:02:09.573Z,4812
2017-11-19T08:03:10.172Z,6576
2017-11-19T08:04:10.788Z,6340
2017-11-19T08:05:11.424Z,4872
2017-11-19T08:06:11.990Z,4568
2017-11-19T08:07:12.604Z,5048
2017-11-19T08:08:13.212Z,6240
2017-11-19T08:09:13.826Z,8172
2017-11-19T08:10:14.430Z,9184
2017-11-19T08:11:15.029Z,8304
2017-11-19T08:12:15.639Z,7076
2017-11-19T08:13:16.250Z,6148
2017-11-19T08:14:16.842Z,5140
2017-11-19T08:15:17.460Z,4172
2017-11-19T08:16:18.047Z,3772
2017-11-19T08:17:18.650Z,3708
2017-11-19T08:18:19.255Z,3896
2017-11-19T08:19:19.891Z,4088
2017-11-19T08:20:20.479Z,4280
2017-11-19T08:21:21.085Z,5300
2017-11-19T08:22:21.723Z,6160
2017-11-19T08:23:22.313Z,6008
2017-11-19T08:24:22.914Z,6020
2017-11-19T08:25:23.522Z,7116
2017-11-19T08:26:24.101Z,7960
2017-11-19T08:27:24.752Z,5804
2017-11-19T08:28:25.419Z,4404
2017-11-19T08:29:26.029Z,4156
2017-11-19T08:30:26.621Z,4288
2017-11-19T08:31:27.219Z,4496
2017-11-19T08:32:27.831Z,4700
2017-11-19T08:33:28.437Z,4904
2017-11-19T08:34:29.049Z,5568
2017-11-19T08:35:29.661Z,6964
2017-11-19T08:36:30.263Z,7480
2017-11-19T08:37:30.873Z,6924
2017-11-19T08:38:31.504Z,6060
2017-11-19T08:39:32.085Z,6568
2017-11-19T08:40:32.686Z,8140
2017-11-19T08:41:33.291Z,7904
2017-11-19T08:42:33.900Z,7744
2017-11-19T08:43:34.500Z,7188
2017-11-19T08:44:35.095Z,8268
2017-11-19T08:45:35.698Z,9016
2017-11-19T08:46:36.311Z,7260
2017-11-19T08:47:36.938Z,5168
2017-11-19T08:48:37.518Z,5436
2017-11-19T08:49:38.116Z,7380
2017-11-19T08:50:38.724Z,8608
2017-11-19T08:51:39.328Z,9432
2017-11-19T08:52:39.950Z,9024
2017-11-19T08:53:40.548Z,8828
2017-11-19T08:54:41.162Z,9304
2017-11-19T08:55:41.780Z,9992
2017-11-19T08:56:42.380Z,10760
2017-11-19T08:57:42.992Z,12080
2017-11-19T08:58:43.603Z,13120
2017-11-19T08:59:44.222Z,14144
2017-11-19T09:00:44.800Z,15072
2017-11-19T09:01:45.416Z,14812
2017-11-19T09:02:46.029Z,14420
2017-11-19T09:03:46.637Z,13648
2017-11-19T09:04:47.254Z,14864
2017-11-19T09:05:47.871Z,12804
2017-11-19T09:06:48.480Z,12244
2017-11-19T09:07:49.082Z,14952
2017-11-19T09:08:49.681Z,18720
2017-11-19T09:09:50.294Z,19744
2017-11-19T09:10:50.921Z,18944
2017-11-19T09:11:51.508Z,15672
2017-11-19T09:12:52.119Z,14536
2017-11-19T09:13:52.783Z,12820
2017-11-19T09:14:53.396Z,11544
2017-11-19T09:15:53.996Z,10464
2017-11-19T09:16:54.600Z,9268
2017-11-19T09:17:55.212Z,9020
2017-11-19T09:18:55.823Z,9220
2017-11-19T09:19:56.432Z,10328
2017-11-19T09:20:57.039Z,9588
2017-11-19T09:21:57.639Z,8136
2017-11-19T09:22:58.252Z,7340
2017-11-19T09:23:58.850Z,6760
2017-11-19T09:24:59.446Z,6568
2017-11-19T09:26:00.049Z,6012
2017-11-19T09:27:00.662Z,6004
2017-11-19T09:28:01.261Z,6148
2017-11-19T09:29:01.855Z,6324
2017-11-19T09:30:02.465Z,7276
2017-11-19T09:31:03.076Z,11960
2017-11-19T09:32:03.678Z,9932
2017-11-19T09:33:04.290Z,11832
2017-11-19T09:34:04.901Z,11120
2017-11-19T09:35:05.508Z,10480
2017-11-19T09:36:06.101Z,10928
2017-11-19T09:37:06.704Z,12504
2017-11-19T09:38:07.316Z,12540
2017-11-19T09:39:07.923Z,13340
2017-11-19T09:40:08.518Z,13620
2017-11-19T09:41:09.118Z,14336
2017-11-19T09:42:09.727Z,14792
2017-11-19T09:43:10.358Z,11460
2017-11-19T09:44:10.966Z,16128
2017-11-19T09:45:11.588Z,15380
2017-11-19T09:46:12.197Z,12828
2017-11-19T09:47:12.806Z,13960
2017-11-19T09:48:13.428Z,14260
2017-11-19T09:49:14.034Z,12468
2017-11-19T09:50:14.675Z,10184
2017-11-19T09:51:15.265Z,10292
2017-11-19T09:52:15.869Z,11452
2017-11-19T09:53:16.473Z,12728
2017-11-19T09:54:17.078Z,12672
2017-11-19T09:55:17.679Z,12700
2017-11-19T09:56:18.294Z,16556
2017-11-19T09:57:18.898Z,18208
2017-11-19T09:58:19.499Z,18208
2017-11-19T09:59:20.112Z,17824
2017-11-19T10:00:20.720Z,18272
2017-11-19T10:01:21.328Z,19392
2017-11-19T10:02:21.946Z,19232
2017-11-19T10:03:22.565Z,18176
2017-11-19T10:04:23.177Z,16192
2017-11-19T10:05:23.792Z,12184
2017-11-19T10:06:24.405Z,13804
2017-11-19T10:07:25.022Z,15264
2017-11-19T10:08:25.627Z,16756
2017-11-19T10:09:26.236Z,18016
2017-11-19T10:10:26.839Z,14532
2017-11-19T10:11:27.447Z,11248
2017-11-19T10:12:28.063Z,10260
2017-11-19T10:13:28.683Z,9852
2017-11-19T10:14:29.301Z,9712
2017-11-19T10:15:29.933Z,9704
2017-11-19T10:16:30.560Z,9784
2017-11-19T10:17:31.142Z,9840
2017-11-19T10:18:31.793Z,9840
2017-11-19T10:19:32.369Z,9880
2017-11-19T10:20:32.990Z,10032
2017-11-19T10:21:33.593Z,10096
2017-11-19T10:22:34.208Z,9976
2017-11-19T10:23:34.811Z,9808
2017-11-19T10:24:35.463Z,9776
2017-11-19T10:25:36.052Z,9768
2017-11-19T10:26:36.649Z,9732
2017-11-19T10:27:37.264Z,9776
2017-11-19T10:28:37.867Z,9864
2017-11-19T10:29:38.467Z,9892
2017-11-19T10:30:39.089Z,9852
2017-11-19T10:31:39.683Z,9864
2017-11-19T10:32:40.294Z,9756
2017-11-19T10:33:40.910Z,9740
2017-11-19T10:34:41.520Z,9884
2017-11-19T10:35:42.135Z,10112
2017-11-19T10:36:42.744Z,10332
2017-11-19T10:37:43.362Z,10620
2017-11-19T10:38:43.977Z,10704
2017-11-19T10:39:44.590Z,10568
2017-11-19T10:40:45.205Z,10404
2017-11-19T10:41:45.824Z,10328
2017-11-19T10:42:46.440Z,10208
2017-11-19T10:43:47.055Z,10048
2017-11-19T10:44:47.671Z,10272
2017-11-19T10:45:48.293Z,10576
2017-11-19T10:46:48.901Z,11288
2017-11-19T10:47:49.512Z,12640
2017-11-19T10:48:50.119Z,13700
2017-11-19T10:49:50.733Z,13244
2017-11-19T10:50:51.350Z,12304
2017-11-19T10:51:51.970Z,11700
2017-11-19T10:52:52.578Z,11680
2017-11-19T10:53:53.192Z,12908
2017-11-19T10:54:53.798Z,15112
2017-11-19T10:55:54.435Z,16068
2017-11-19T10:56:55.023Z,13860
2017-11-19T10:57:55.627Z,12592
2017-11-19T10:58:56.236Z,11584
2017-11-19T10:59:56.844Z,14928
2017-11-19T11:00:57.460Z,18744
2017-11-19T11:01:58.072Z,21856
2017-11-19T11:02:58.673Z,23648
2017-11-19T11:03:59.292Z,24288
2017-11-19T11:04:59.896Z,23936
2017-11-19T11:06:00.508Z,22976
2017-11-19T11:07:01.123Z,23360
2017-11-19T11:08:01.738Z,21696
2017-11-19T11:09:02.347Z,23200
2017-11-19T11:10:02.976Z,20768
2017-11-19T11:11:03.598Z,16536
2017-11-19T11:12:04.200Z,13388
2017-11-19T11:13:04.805Z,9964
2017-11-19T11:14:05.409Z,7548
2017-11-19T11:15:06.027Z,6728
2017-11-19T11:16:06.637Z,6824
2017-11-19T11:17:07.246Z,6716
2017-11-19T11:18:07.845Z,13652
2017-11-19T11:19:08.462Z,19408
2017-11-19T11:20:09.073Z,25600
2017-11-19T11:21:09.690Z,25344
2017-11-19T11:22:10.298Z,30400
2017-11-19T11:23:10.909Z,31296
2017-11-19T11:24:11.555Z,29856
2017-11-19T11:25:12.138Z,28096
2017-11-19T11:26:12.751Z,22432
2017-11-19T11:27:13.371Z,21440
2017-11-19T11:28:13.984Z,19424
2017-11-19T11:29:14.596Z,8992
2017-11-19T11:30:15.193Z,17296
2017-11-19T11:31:15.805Z,24736
2017-11-19T11:32:16.406Z,23328
2017-11-19T11:33:17.023Z,22624
2017-11-19T11:34:17.634Z,23424
2017-11-19T11:35:18.251Z,25120
2017-11-19T11:36:18.857Z,25600
2017-11-19T11:37:19.466Z,25216
2017-11-19T11:38:20.090Z,29376
2017-11-19T11:39:20.694Z,31616
2017-11-19T11:40:21.284Z,28064
2017-11-19T11:41:21.903Z,11444
2017-11-19T11:42:22.500Z,5864
2017-11-19T11:43:23.102Z,5960
2017-11-19T11:44:23.708Z,6432
2017-11-19T11:45:24.310Z,8156
2017-11-19T11:46:24.919Z,14180
2017-11-19T11:47:25.534Z,20736
2017-11-19T11:48:26.151Z,21056
2017-11-19T11:49:26.760Z,21696
2017-11-19T11:50:27.387Z,15468
2017-11-19T11:51:28.001Z,21152
2017-11-19T11:52:28.609Z,22336
2017-11-19T11:53:29.211Z,13808
2017-11-19T11:54:29.836Z,10752
2017-11-19T11:55:30.424Z,11828
2017-11-19T11:56:31.042Z,14708
2017-11-19T11:57:31.642Z,12632
2017-11-19T11:58:32.257Z,12776
2017-11-19T11:59:32.855Z,14492
2017-11-19T12:00:33.469Z,17392
2017-11-19T12:01:34.085Z,16212
2017-11-19T12:02:34.688Z,15572
2017-11-19T12:03:35.310Z,15340
2017-11-19T12:04:35.923Z,19328
2017-11-19T12:05:36.531Z,16484
2017-11-19T12:06:37.149Z,21664
2017-11-19T12:07:37.767Z,20096
2017-11-19T12:08:38.383Z,14856
2017-11-19T12:09:39.013Z,11520
2017-11-19T12:10:39.618Z,15988
2017-11-19T12:11:40.239Z,22656
2017-11-19T12:12:40.854Z,28992
2017-11-19T12:13:41.471Z,20672
2017-11-19T12:14:42.090Z,20480
2017-11-19T12:15:42.697Z,17916
2017-11-19T12:16:43.316Z,17088
2017-11-19T12:17:43.934Z,18720
2017-11-19T12:18:44.566Z,18720
2017-11-19T12:19:45.167Z,19136
2017-11-19T12:20:45.776Z,22368
2017-11-19T12:21:46.405Z,22144
2017-11-19T12:22:47.011Z,14220
2017-11-19T12:23:47.622Z,11328
2017-11-19T12:24:48.225Z,11672
2017-11-19T12:25:48.841Z,12172
2017-11-19T12:26:49.456Z,10992
2017-11-19T12:27:50.073Z,10480
2017-11-19T12:28:50.719Z,8668
2017-11-19T12:29:51.318Z,7848
2017-11-19T12:30:51.953Z,11188
2017-11-19T12:31:52.542Z,11232
2017-11-19T12:32:53.155Z,11220
2017-11-19T12:33:53.780Z,13108
2017-11-19T12:34:54.397Z,15756
2017-11-19T12:35:55.005Z,14436
2017-11-19T12:36:55.608Z,13128
2017-11-19T12:37:56.228Z,12896
2017-11-19T12:38:56.839Z,11520
2017-11-19T12:39:57.444Z,10604
2017-11-19T12:40:58.056Z,10380
2017-11-19T12:41:58.709Z,9212
2017-11-19T12:42:59.479Z,8460
2017-11-19T12:44:00.128Z,8680
2017-11-19T12:45:00.731Z,8596
2017-11-19T12:46:01.342Z,8212
2017-11-19T12:47:01.971Z,7796
2017-11-19T12:48:02.590Z,7480
2017-11-19T12:49:03.175Z,7340
2017-11-19T12:50:03.791Z,7324
2017-11-19T12:51:04.410Z,7420
2017-11-19T12:52:05.024Z,7668
2017-11-19T12:53:05.643Z,8184
2017-11-19T12:54:06.256Z,9204
2017-11-19T12:55:06.862Z,10960
2017-11-19T12:56:07.482Z,12952
2017-11-19T12:57:08.093Z,14100
2017-11-19T12:58:08.696Z,13708
2017-11-19T12:59:09.298Z,12212
2017-11-19T13:00:09.921Z,11164
2017-11-19T13:01:10.520Z,11700
2017-11-19T13:02:11.127Z,12480
2017-11-19T13:03:11.744Z,11640
2017-11-19T13:04:12.349Z,10880
2017-11-19T13:05:12.947Z,10064
2017-11-19T13:06:13.556Z,9460
2017-11-19T13:07:14.162Z,9252
2017-11-19T13:08:14.794Z,8952
2017-11-19T13:09:15.399Z,8776
2017-11-19T13:10:16.013Z,8164
2017-11-19T13:11:16.620Z,7916
2017-11-19T13:12:17.237Z,7616
2017-11-19T13:13:17.844Z,7320
2017-11-19T13:14:18.458Z,7184
2017-11-19T13:15:19.057Z,7004
2017-11-19T13:16:19.669Z,6800
2017-11-19T13:17:20.286Z,6660
2017-11-19T13:18:20.897Z,6584
2017-11-19T13:19:21.511Z,6516
2017-11-19T13:20:22.119Z,6464
2017-11-19T13:21:22.715Z,6420
2017-11-19T13:22:23.326Z,6408
2017-11-19T13:23:23.937Z,6496
2017-11-19T13:24:24.541Z,6660
2017-11-19T13:25:25.153Z,6628
2017-11-19T13:26:25.762Z,6640
2017-11-19T13:27:26.373Z,6672
2017-11-19T13:28:26.990Z,6664
2017-11-19T13:29:27.624Z,6644
2017-11-19T13:30:28.225Z,6608
2017-11-19T13:31:28.847Z,6544
2017-11-19T13:32:29.429Z,6540
2017-11-19T13:33:30.040Z,6408
2017-11-19T13:34:30.654Z,6440
2017-11-19T13:35:31.265Z,6180
2017-11-19T13:36:31.859Z,6228
2017-11-19T13:37:32.469Z,6260
2017-11-19T13:38:33.070Z,6392
2017-11-19T13:39:33.686Z,6384
2017-11-19T13:40:34.289Z,6516
2017-11-19T13:41:34.888Z,6580
2017-11-19T13:42:35.498Z,6804
2017-11-19T13:43:36.110Z,7088
2017-11-19T13:44:36.721Z,7628
2017-11-19T13:45:37.323Z,7496
2017-11-19T13:46:37.921Z,7840
2017-11-19T13:47:38.531Z,8172
2017-11-19T13:48:39.138Z,8004
2017-11-19T13:49:39.751Z,8148
2017-11-19T13:50:40.348Z,8740
2017-11-19T13:51:40.953Z,9368
2017-11-19T13:52:41.573Z,10472
2017-11-19T13:53:42.177Z,11292
2017-11-19T13:54:42.789Z,11724
2017-11-19T13:55:43.399Z,11760
2017-11-19T13:56:44.008Z,11276
2017-11-19T13:57:44.617Z,10568
2017-11-19T13:58:45.230Z,9696
2017-11-19T13:59:45.849Z,8848
2017-11-19T14:00:46.453Z,8184
2017-11-19T14:01:47.053Z,7624